sensor_id;sensor_type;location;lat;lon;timestamp;pressure;altitude;pressure_sealevel;temperature;humidity
80149;BME280;69473;42.426;26.644;2023-11-19T00:02:08;98369.31;;;4.15;71.49
80149;BME280;69473;42.426;26.644;2023-11-19T00:04:36;98369.19;;;4.06;72.23
80149;BME280;69473;42.426;26.644;2023-11-19T00:07:03;98362.44;;;4.14;70.46
80149;BME280;69473;42.426;26.644;2023-11-19T00:09:30;98351.47;;;4.24;69.26
80149;BME280;69473;42.426;26.644;2023-11-19T00:11:56;98362.59;;;4.26;68.79
80149;BME280;69473;42.426;26.644;2023-11-19T00:14:23;98377.94;;;4.23;68.91
80149;BME280;69473;42.426;26.644;2023-11-19T00:16:49;98384.66;;;4.12;69.92
80149;BME280;69473;42.426;26.644;2023-11-19T00:19:16;98377.88;;;4.17;70.30
80149;BME280;69473;42.426;26.644;2023-11-19T00:21:42;98381.28;;;4.16;70.55
80149;BME280;69473;42.426;26.644;2023-11-19T00:24:08;98386.31;;;4.10;71.38
80149;BME280;69473;42.426;26.644;2023-11-19T00:26:34;98377.78;;;4.11;71.28
80149;BME280;69473;42.426;26.644;2023-11-19T00:28:59;98370.16;;;4.17;70.48
80149;BME280;69473;42.426;26.644;2023-11-19T00:31:25;98384.72;;;4.18;71.43
80149;BME280;69473;42.426;26.644;2023-11-19T00:33:53;98381.56;;;4.37;69.29
80149;BME280;69473;42.426;26.644;2023-11-19T00:36:19;98396.81;;;4.28;70.57
80149;BME280;69473;42.426;26.644;2023-11-19T00:38:44;98386.41;;;4.16;70.09
80149;BME280;69473;42.426;26.644;2023-11-19T00:41:10;98395.66;;;4.03;72.12
80149;BME280;69473;42.426;26.644;2023-11-19T00:43:36;98404.44;;;4.21;70.42
80149;BME280;69473;42.426;26.644;2023-11-19T00:46:02;98407.72;;;4.13;70.41
80149;BME280;69473;42.426;26.644;2023-11-19T00:48:30;98411.50;;;4.40;69.18
80149;BME280;69473;42.426;26.644;2023-11-19T00:50:57;98417.25;;;4.21;69.79
80149;BME280;69473;42.426;26.644;2023-11-19T00:53:22;98403.25;;;3.99;71.38
80149;BME280;69473;42.426;26.644;2023-11-19T00:55:48;98412.59;;;3.93;72.28
80149;BME280;69473;42.426;26.644;2023-11-19T00:58:13;98425.47;;;3.97;71.47
80149;BME280;69473;42.426;26.644;2023-11-19T01:00:39;98430.72;;;4.06;71.21
80149;BME280;69473;42.426;26.644;2023-11-19T01:03:05;98429.03;;;4.08;71.33
80149;BME280;69473;42.426;26.644;2023-11-19T01:05:32;98425.50;;;4.00;71.15
80149;BME280;69473;42.426;26.644;2023-11-19T01:07:58;98436.09;;;4.24;70.55
80149;BME280;69473;42.426;26.644;2023-11-19T01:10:24;98434.16;;;4.08;71.15
80149;BME280;69473;42.426;26.644;2023-11-19T01:12:51;98432.47;;;4.10;70.24
80149;BME280;69473;42.426;26.644;2023-11-19T01:15:17;98444.22;;;3.96;71.55
80149;BME280;69473;42.426;26.644;2023-11-19T01:17:44;98435.72;;;3.97;71.56
80149;BME280;69473;42.426;26.644;2023-11-19T01:20:10;98440.00;;;3.98;71.27
80149;BME280;69473;42.426;26.644;2023-11-19T01:22:39;98439.19;;;4.02;70.56
80149;BME280;69473;42.426;26.644;2023-11-19T01:25:05;98451.19;;;4.03;71.01
80149;BME280;69473;42.426;26.644;2023-11-19T01:27:31;98448.72;;;4.10;69.44
80149;BME280;69473;42.426;26.644;2023-11-19T01:29:56;98446.06;;;4.04;69.61
80149;BME280;69473;42.426;26.644;2023-11-19T01:32:22;98449.44;;;4.02;70.81
80149;BME280;69473;42.426;26.644;2023-11-19T01:34:49;98454.53;;;3.99;71.17
80149;BME280;69473;42.426;26.644;2023-11-19T01:37:15;98451.28;;;4.10;69.70
80149;BME280;69473;42.426;26.644;2023-11-19T01:39:43;98451.19;;;4.03;71.34
80149;BME280;69473;42.426;26.644;2023-11-19T01:42:09;98460.53;;;3.99;71.06
80149;BME280;69473;42.426;26.644;2023-11-19T01:44:34;98452.81;;;3.98;71.13
80149;BME280;69473;42.426;26.644;2023-11-19T01:47:01;98441.78;;;4.05;71.14
80149;BME280;69473;42.426;26.644;2023-11-19T01:49:27;98453.88;;;4.13;70.21
80149;BME280;69473;42.426;26.644;2023-11-19T01:51:54;98460.63;;;4.05;70.27
80149;BME280;69473;42.426;26.644;2023-11-19T01:54:20;98463.34;;;4.16;69.63
80149;BME280;69473;42.426;26.644;2023-11-19T01:56:45;98455.63;;;4.14;69.17
80149;BME280;69473;42.426;26.644;2023-11-19T01:59:12;98447.94;;;4.16;69.76
80149;BME280;69473;42.426;26.644;2023-11-19T02:01:39;98436.78;;;4.12;69.84
80149;BME280;69473;42.426;26.644;2023-11-19T02:04:07;98451.31;;;4.12;69.87
80149;BME280;69473;42.426;26.644;2023-11-19T02:06:34;98454.75;;;4.14;68.96
80149;BME280;69473;42.426;26.644;2023-11-19T02:09:02;98470.16;;;4.17;69.49
80149;BME280;69473;42.426;26.644;2023-11-19T02:11:34;98473.72;;;4.25;69.00
80149;BME280;69473;42.426;26.644;2023-11-19T02:14:00;98467.72;;;4.25;68.44
80149;BME280;69473;42.426;26.644;2023-11-19T02:16:26;98466.88;;;4.24;68.98
80149;BME280;69473;42.426;26.644;2023-11-19T02:18:51;98463.50;;;4.28;69.00
80149;BME280;69473;42.426;26.644;2023-11-19T02:21:17;98463.47;;;4.25;69.33
80149;BME280;69473;42.426;26.644;2023-11-19T02:23:44;98457.47;;;4.25;69.99
80149;BME280;69473;42.426;26.644;2023-11-19T02:28:50;98468.81;;;4.40;68.87
80149;BME280;69473;42.426;26.644;2023-11-19T02:31:16;98460.09;;;4.29;69.29
80149;BME280;69473;42.426;26.644;2023-11-19T02:33:41;98460.00;;;4.23;69.55
80149;BME280;69473;42.426;26.644;2023-11-19T02:36:08;98451.31;;;4.12;70.22
80149;BME280;69473;42.426;26.644;2023-11-19T02:38:35;98458.16;;;4.13;70.61
80149;BME280;69473;42.426;26.644;2023-11-19T02:41:04;98461.66;;;4.18;70.90
80149;BME280;69473;42.426;26.644;2023-11-19T02:43:34;98452.13;;;4.11;70.92
80149;BME280;69473;42.426;26.644;2023-11-19T02:46:04;98462.31;;;4.05;70.88
80149;BME280;69473;42.426;26.644;2023-11-19T02:48:33;98470.09;;;4.11;71.46
80149;BME280;69473;42.426;26.644;2023-11-19T02:51:01;98465.66;;;3.99;72.04
80149;BME280;69473;42.426;26.644;2023-11-19T02:53:31;98482.81;;;4.03;72.33
80149;BME280;69473;42.426;26.644;2023-11-19T02:55:57;98481.94;;;4.03;72.71
80149;BME280;69473;42.426;26.644;2023-11-19T02:58:27;98473.41;;;4.04;72.04
80149;BME280;69473;42.426;26.644;2023-11-19T03:00:54;98484.56;;;4.06;72.65
80149;BME280;69473;42.426;26.644;2023-11-19T03:03:23;98496.34;;;3.94;73.36
80149;BME280;69473;42.426;26.644;2023-11-19T03:05:54;98499.00;;;4.01;73.78
80149;BME280;69473;42.426;26.644;2023-11-19T03:08:20;98492.16;;;4.00;74.05
80149;BME280;69473;42.426;26.644;2023-11-19T03:10:45;98492.09;;;3.97;73.48
80149;BME280;69473;42.426;26.644;2023-11-19T03:13:13;98501.56;;;4.01;73.21
80149;BME280;69473;42.426;26.644;2023-11-19T03:15:44;98490.47;;;4.02;73.76
80149;BME280;69473;42.426;26.644;2023-11-19T03:18:11;98497.34;;;4.03;74.45
80149;BME280;69473;42.426;26.644;2023-11-19T03:20:36;98498.94;;;3.98;74.27
80149;BME280;69473;42.426;26.644;2023-11-19T03:23:02;98500.59;;;3.92;74.30
80149;BME280;69473;42.426;26.644;2023-11-19T03:25:28;98497.13;;;3.90;75.35
80149;BME280;69473;42.426;26.644;2023-11-19T03:27:59;98488.56;;;3.88;75.50
80149;BME280;69473;42.426;26.644;2023-11-19T03:30:26;98481.66;;;3.84;76.92
80149;BME280;69473;42.426;26.644;2023-11-19T03:32:51;98488.50;;;3.85;76.63
80149;BME280;69473;42.426;26.644;2023-11-19T03:35:17;98481.63;;;3.81;76.63
80149;BME280;69473;42.426;26.644;2023-11-19T03:37:42;98480.78;;;3.82;77.65
80149;BME280;69473;42.426;26.644;2023-11-19T03:40:09;98477.41;;;3.85;77.14
80149;BME280;69473;42.426;26.644;2023-11-19T03:42:35;98492.16;;;4.00;76.54
80149;BME280;69473;42.426;26.644;2023-11-19T03:45:01;98490.31;;;3.89;76.98
80149;BME280;69473;42.426;26.644;2023-11-19T03:47:26;98486.97;;;3.97;77.04
80149;BME280;69473;42.426;26.644;2023-11-19T03:49:52;98488.69;;;3.98;77.07
80149;BME280;69473;42.426;26.644;2023-11-19T03:52:18;98493.03;;;4.02;75.58
80149;BME280;69473;42.426;26.644;2023-11-19T03:54:44;98487.31;;;4.18;75.01
80149;BME280;69473;42.426;26.644;2023-11-19T03:57:13;98492.38;;;4.15;74.53
80149;BME280;69473;42.426;26.644;2023-11-19T03:59:41;98493.38;;;4.25;72.89
80149;BME280;69473;42.426;26.644;2023-11-19T04:02:06;98506.31;;;4.32;73.40
80149;BME280;69473;42.426;26.644;2023-11-19T04:04:33;98502.88;;;4.30;72.88
80149;BME280;69473;42.426;26.644;2023-11-19T04:06:59;98501.00;;;4.20;73.71
80149;BME280;69473;42.426;26.644;2023-11-19T04:09:26;98507.19;;;4.34;72.86
80149;BME280;69473;42.426;26.644;2023-11-19T04:11:51;98516.72;;;4.45;70.97
80149;BME280;69473;42.426;26.644;2023-11-19T04:14:17;98523.34;;;4.27;72.76
80149;BME280;69473;42.426;26.644;2023-11-19T04:16:44;98536.97;;;4.25;73.01
80149;BME280;69473;42.426;26.644;2023-11-19T04:19:10;98548.84;;;4.18;73.47
80149;BME280;69473;42.426;26.644;2023-11-19T04:21:36;98541.19;;;4.21;73.86
80149;BME280;69473;42.426;26.644;2023-11-19T04:24:01;98552.28;;;4.20;74.00
80149;BME280;69473;42.426;26.644;2023-11-19T04:26:27;98555.69;;;4.19;73.82
80149;BME280;69473;42.426;26.644;2023-11-19T04:28:52;98566.03;;;4.25;73.80
80149;BME280;69473;42.426;26.644;2023-11-19T04:31:18;98565.91;;;4.16;74.26
80149;BME280;69473;42.426;26.644;2023-11-19T04:33:43;98575.25;;;4.14;74.51
80149;BME280;69473;42.426;26.644;2023-11-19T04:36:10;98576.22;;;4.19;72.61
80149;BME280;69473;42.426;26.644;2023-11-19T04:38:35;98579.63;;;4.18;72.79
80149;BME280;69473;42.426;26.644;2023-11-19T04:41:04;98580.44;;;4.15;71.96
80149;BME280;69473;42.426;26.644;2023-11-19T04:43:31;98596.63;;;4.13;73.38
80149;BME280;69473;42.426;26.644;2023-11-19T04:45:57;98595.75;;;4.12;72.77
80149;BME280;69473;42.426;26.644;2023-11-19T04:48:23;98605.31;;;4.21;73.11
80149;BME280;69473;42.426;26.644;2023-11-19T04:50:49;98611.16;;;4.12;73.69
80149;BME280;69473;42.426;26.644;2023-11-19T04:53:16;98616.88;;;3.98;74.16
80149;BME280;69473;42.426;26.644;2023-11-19T04:55:42;98610.25;;;4.09;73.74
80149;BME280;69473;42.426;26.644;2023-11-19T04:58:08;98611.75;;;3.98;74.43
80149;BME280;69473;42.426;26.644;2023-11-19T05:00:33;98627.19;;;4.01;74.35
80149;BME280;69473;42.426;26.644;2023-11-19T05:02:59;98625.50;;;4.03;74.67
80149;BME280;69473;42.426;26.644;2023-11-19T05:05:24;98637.53;;;4.07;74.84
80149;BME280;69473;42.426;26.644;2023-11-19T05:07:50;98637.50;;;4.04;74.06
80149;BME280;69473;42.426;26.644;2023-11-19T05:10:15;98636.63;;;4.05;74.64
80149;BME280;69473;42.426;26.644;2023-11-19T05:12:41;98646.72;;;3.94;75.34
80149;BME280;69473;42.426;26.644;2023-11-19T05:15:07;98654.53;;;4.02;75.00
80149;BME280;69473;42.426;26.644;2023-11-19T05:17:33;98653.59;;;3.97;74.91
80149;BME280;69473;42.426;26.644;2023-11-19T05:19:59;98656.22;;;4.00;74.68
80149;BME280;69473;42.426;26.644;2023-11-19T05:22:24;98656.28;;;4.03;75.35
80149;BME280;69473;42.426;26.644;2023-11-19T05:24:51;98659.81;;;4.11;74.08
80149;BME280;69473;42.426;26.644;2023-11-19T05:27:17;98657.16;;;4.05;74.48
80149;BME280;69473;42.426;26.644;2023-11-19T05:29:43;98661.47;;;4.06;75.00
80149;BME280;69473;42.426;26.644;2023-11-19T05:32:09;98664.09;;;4.10;75.07
80149;BME280;69473;42.426;26.644;2023-11-19T05:34:35;98661.47;;;4.06;75.00
80149;BME280;69473;42.426;26.644;2023-11-19T05:37:00;98663.13;;;4.04;75.21
80149;BME280;69473;42.426;26.644;2023-11-19T05:39:27;98665.78;;;4.10;74.97
80149;BME280;69473;42.426;26.644;2023-11-19T05:41:53;98663.97;;;4.04;75.53
80149;BME280;69473;42.426;26.644;2023-11-19T05:44:18;98668.19;;;4.01;75.62
80149;BME280;69473;42.426;26.644;2023-11-19T05:46:44;98676.75;;;4.01;75.05
80149;BME280;69473;42.426;26.644;2023-11-19T05:49:11;98664.84;;;4.05;75.28
80149;BME280;69473;42.426;26.644;2023-11-19T05:51:38;98671.72;;;4.06;74.19
80149;BME280;69473;42.426;26.644;2023-11-19T05:54:08;98673.66;;;4.19;73.77
80149;BME280;69473;42.426;26.644;2023-11-19T05:56:34;98670.28;;;4.23;72.12
80149;BME280;69473;42.426;26.644;2023-11-19T05:59:00;98672.25;;;4.36;71.97
80149;BME280;69473;42.426;26.644;2023-11-19T06:01:34;98668.69;;;4.28;71.68
80149;BME280;69473;42.426;26.644;2023-11-19T06:03:59;98668.59;;;4.22;72.93
80149;BME280;69473;42.426;26.644;2023-11-19T06:06:26;98667.94;;;4.35;71.52
80149;BME280;69473;42.426;26.644;2023-11-19T06:08:52;98671.31;;;4.33;71.16
80149;BME280;69473;42.426;26.644;2023-11-19T06:11:18;98673.31;;;4.51;70.18
80149;BME280;69473;42.426;26.644;2023-11-19T06:13:45;98672.59;;;4.58;69.50
80149;BME280;69473;42.426;26.644;2023-11-19T06:16:11;98679.31;;;4.50;70.56
80149;BME280;69473;42.426;26.644;2023-11-19T06:18:37;98676.09;;;4.63;70.21
80149;BME280;69473;42.426;26.644;2023-11-19T06:21:03;98677.94;;;4.73;69.61
80149;BME280;69473;42.426;26.644;2023-11-19T06:23:28;98679.06;;;4.91;68.28
80149;BME280;69473;42.426;26.644;2023-11-19T06:25:54;98675.47;;;4.78;68.69
80149;BME280;69473;42.426;26.644;2023-11-19T06:28:19;98673.84;;;4.83;69.10
80149;BME280;69473;42.426;26.644;2023-11-19T06:30:45;98668.72;;;4.84;68.68
80149;BME280;69473;42.426;26.644;2023-11-19T06:33:14;98674.13;;;5.04;68.31
80149;BME280;69473;42.426;26.644;2023-11-19T06:35:40;98676.81;;;5.12;68.15
80149;BME280;69473;42.426;26.644;2023-11-19T06:38:05;98672.63;;;5.19;67.04
80149;BME280;69473;42.426;26.644;2023-11-19T06:40:32;98669.03;;;5.06;67.76
80149;BME280;69473;42.426;26.644;2023-11-19T06:42:58;98683.75;;;5.19;66.95
80149;BME280;69473;42.426;26.644;2023-11-19T06:45:24;98679.47;;;5.20;65.82
80149;BME280;69473;42.426;26.644;2023-11-19T06:47:49;98697.38;;;5.12;66.61
80149;BME280;69473;42.426;26.644;2023-11-19T06:50:15;98682.94;;;5.20;66.47
80149;BME280;69473;42.426;26.644;2023-11-19T06:52:41;98690.69;;;5.26;65.72
80149;BME280;69473;42.426;26.644;2023-11-19T06:55:07;98694.06;;;5.22;66.10
80149;BME280;69473;42.426;26.644;2023-11-19T06:57:33;98695.00;;;5.29;66.53
80149;BME280;69473;42.426;26.644;2023-11-19T06:59:59;98688.25;;;5.36;66.60
80149;BME280;69473;42.426;26.644;2023-11-19T07:02:24;98694.38;;;5.44;65.79
80149;BME280;69473;42.426;26.644;2023-11-19T07:04:50;98690.78;;;5.32;65.97
80149;BME280;69473;42.426;26.644;2023-11-19T07:07:16;98696.06;;;5.45;64.85
80149;BME280;69473;42.426;26.644;2023-11-19T07:09:42;98689.09;;;5.35;65.84
80149;BME280;69473;42.426;26.644;2023-11-19T07:12:08;98699.22;;;5.22;66.19
80149;BME280;69473;42.426;26.644;2023-11-19T07:14:34;98706.16;;;5.29;65.25
80149;BME280;69473;42.426;26.644;2023-11-19T07:17:01;98710.06;;;5.65;63.88
80149;BME280;69473;42.426;26.644;2023-11-19T07:19:26;98709.00;;;5.51;64.16
80149;BME280;69473;42.426;26.644;2023-11-19T07:21:52;98717.59;;;5.53;63.93
80149;BME280;69473;42.426;26.644;2023-11-19T07:24:20;98719.25;;;5.48;64.56
80149;BME280;69473;42.426;26.644;2023-11-19T07:26:47;98727.31;;;5.75;64.07
80149;BME280;69473;42.426;26.644;2023-11-19T07:29:16;98721.94;;;5.57;64.96
80149;BME280;69473;42.426;26.644;2023-11-19T07:31:44;98728.97;;;5.70;64.06
80149;BME280;69473;42.426;26.644;2023-11-19T07:34:10;98737.66;;;5.82;64.28
80149;BME280;69473;42.426;26.644;2023-11-19T07:36:37;98743.88;;;5.96;62.39
80149;BME280;69473;42.426;26.644;2023-11-19T07:39:04;98746.34;;;5.90;63.25
80149;BME280;69473;42.426;26.644;2023-11-19T07:41:31;98746.53;;;6.02;62.35
80149;BME280;69473;42.426;26.644;2023-11-19T07:43:56;98759.50;;;6.11;62.55
80149;BME280;69473;42.426;26.644;2023-11-19T07:46:22;98758.63;;;6.12;61.95
80149;BME280;69473;42.426;26.644;2023-11-19T07:48:48;98755.16;;;6.10;62.81
80149;BME280;69473;42.426;26.644;2023-11-19T07:51:14;98766.47;;;6.23;61.47
80149;BME280;69473;42.426;26.644;2023-11-19T07:53:40;98759.09;;;6.55;60.16
80149;BME280;69473;42.426;26.644;2023-11-19T07:56:07;98764.50;;;6.83;59.47
80149;BME280;69473;42.426;26.644;2023-11-19T07:58:33;98767.97;;;6.89;59.35
80149;BME280;69473;42.426;26.644;2023-11-19T08:00:58;98768.84;;;6.94;59.54
80149;BME280;69473;42.426;26.644;2023-11-19T08:03:24;98771.56;;;7.08;59.41
80149;BME280;69473;42.426;26.644;2023-11-19T08:05:49;98771.16;;;7.83;58.91
80149;BME280;69473;42.426;26.644;2023-11-19T08:08:16;98768.84;;;9.02;54.34
80149;BME280;69473;42.426;26.644;2023-11-19T08:10:42;98760.00;;;12.11;46.18
80149;BME280;69473;42.426;26.644;2023-11-19T08:13:10;98758.19;;;18.61;34.78
80149;BME280;69473;42.426;26.644;2023-11-19T08:15:36;98742.81;;;20.92;29.73
80149;BME280;69473;42.426;26.644;2023-11-19T08:18:02;98750.06;;;23.20;26.35
80149;BME280;69473;42.426;26.644;2023-11-19T08:20:27;98768.66;;;20.46;30.56
80149;BME280;69473;42.426;26.644;2023-11-19T08:22:53;98773.97;;;17.64;32.61
80149;BME280;69473;42.426;26.644;2023-11-19T08:25:20;98780.41;;;14.40;36.71
80149;BME280;69473;42.426;26.644;2023-11-19T08:27:46;98790.53;;;12.60;40.72
80149;BME280;69473;42.426;26.644;2023-11-19T08:30:12;98797.50;;;10.92;44.81
80149;BME280;69473;42.426;26.644;2023-11-19T08:32:38;98803.06;;;10.18;46.31
80149;BME280;69473;42.426;26.644;2023-11-19T08:35:04;98795.53;;;9.51;48.56
80149;BME280;69473;42.426;26.644;2023-11-19T08:37:30;98794.69;;;9.12;50.56
80149;BME280;69473;42.426;26.644;2023-11-19T08:39:56;98794.66;;;9.48;49.52
80149;BME280;69473;42.426;26.644;2023-11-19T08:42:21;98796.03;;;10.54;47.07
80149;BME280;69473;42.426;26.644;2023-11-19T08:44:50;98774.16;;;19.21;33.46
80149;BME280;69473;42.426;26.644;2023-11-19T08:47:19;98773.94;;;24.07;25.71
80149;BME280;69473;42.426;26.644;2023-11-19T08:49:45;98776.63;;;25.84;23.38
80149;BME280;69473;42.426;26.644;2023-11-19T08:52:11;98789.13;;;26.59;21.65
80149;BME280;69473;42.426;26.644;2023-11-19T08:54:37;98770.81;;;26.67;20.81
80149;BME280;69473;42.426;26.644;2023-11-19T08:57:03;98771.97;;;27.00;20.82
80149;BME280;69473;42.426;26.644;2023-11-19T08:59:30;98757.19;;;27.44;19.95
80149;BME280;69473;42.426;26.644;2023-11-19T09:01:55;98764.09;;;26.12;20.86
80149;BME280;69473;42.426;26.644;2023-11-19T09:04:21;98761.44;;;20.51;26.89
80149;BME280;69473;42.426;26.644;2023-11-19T09:06:48;98785.50;;;15.89;33.65
80149;BME280;69473;42.426;26.644;2023-11-19T09:09:14;98794.16;;;13.61;36.93
80149;BME280;69473;42.426;26.644;2023-11-19T09:11:40;98796.19;;;12.27;40.27
80149;BME280;69473;42.426;26.644;2023-11-19T09:14:07;98802.03;;;11.68;42.35
80149;BME280;69473;42.426;26.644;2023-11-19T09:16:32;98799.31;;;10.80;44.23
80149;BME280;69473;42.426;26.644;2023-11-19T09:18:58;98794.41;;;10.37;44.12
80149;BME280;69473;42.426;26.644;2023-11-19T09:21:25;98784.09;;;10.19;45.02
80149;BME280;69473;42.426;26.644;2023-11-19T09:23:51;98780.63;;;10.32;45.09
80149;BME280;69473;42.426;26.644;2023-11-19T09:26:16;98754.44;;;11.69;43.27
80149;BME280;69473;42.426;26.644;2023-11-19T09:28:42;98750.44;;;12.15;40.99
80149;BME280;69473;42.426;26.644;2023-11-19T09:31:17;98738.66;;;12.54;38.42
80149;BME280;69473;42.426;26.644;2023-11-19T09:33:44;98739.03;;;10.54;43.93
80149;BME280;69473;42.426;26.644;2023-11-19T09:36:14;98729.03;;;9.80;45.59
80149;BME280;69473;42.426;26.644;2023-11-19T09:38:43;98742.94;;;9.48;46.71
80149;BME280;69473;42.426;26.644;2023-11-19T09:41:10;98736.09;;;9.29;47.40
80149;BME280;69473;42.426;26.644;2023-11-19T09:43:39;98741.28;;;8.92;48.46
80149;BME280;69473;42.426;26.644;2023-11-19T09:46:06;98740.44;;;9.07;47.56
80149;BME280;69473;42.426;26.644;2023-11-19T09:48:35;98756.78;;;8.74;48.81
80149;BME280;69473;42.426;26.644;2023-11-19T09:51:02;98751.63;;;8.83;48.22
80149;BME280;69473;42.426;26.644;2023-11-19T09:53:30;98746.47;;;8.74;48.70
80149;BME280;69473;42.426;26.644;2023-11-19T09:56:00;98745.59;;;8.96;48.07
80149;BME280;69473;42.426;26.644;2023-11-19T09:58:29;98751.63;;;9.11;47.06
80149;BME280;69473;42.426;26.644;2023-11-19T10:00:54;98753.31;;;9.24;47.45
80149;BME280;69473;42.426;26.644;2023-11-19T10:03:23;98761.94;;;9.35;46.41
80149;BME280;69473;42.426;26.644;2023-11-19T10:05:48;98766.94;;;9.93;44.57
80149;BME280;69473;42.426;26.644;2023-11-19T10:08:14;98763.53;;;9.82;45.32
80149;BME280;69473;42.426;26.644;2023-11-19T10:10:39;98765.91;;;10.37;45.14
80149;BME280;69473;42.426;26.644;2023-11-19T10:13:05;98763.13;;;15.11;35.27
80149;BME280;69473;42.426;26.644;2023-11-19T10:15:37;98771.91;;;12.89;37.85
80149;BME280;69473;42.426;26.644;2023-11-19T10:18:03;98777.94;;;15.10;35.13
80149;BME280;69473;42.426;26.644;2023-11-19T10:20:44;98769.59;;;19.87;28.57
80149;BME280;69473;42.426;26.644;2023-11-19T10:23:10;98770.28;;;21.23;25.84
80149;BME280;69473;42.426;26.644;2023-11-19T10:25:36;98781.81;;;22.56;24.46
80149;BME280;69473;42.426;26.644;2023-11-19T10:28:02;98788.25;;;22.82;24.07
80149;BME280;69473;42.426;26.644;2023-11-19T10:30:30;98799.50;;;22.70;22.61
80149;BME280;69473;42.426;26.644;2023-11-19T10:33:12;98799.84;;;22.64;22.76
80149;BME280;69473;42.426;26.644;2023-11-19T10:35:53;98785.16;;;23.82;22.09
80149;BME280;69473;42.426;26.644;2023-11-19T10:38:20;98781.59;;;23.53;22.79
80149;BME280;69473;42.426;26.644;2023-11-19T10:40:47;98769.41;;;23.95;22.74
80149;BME280;69473;42.426;26.644;2023-11-19T10:43:13;98766.97;;;20.45;25.33
80149;BME280;69473;42.426;26.644;2023-11-19T10:45:39;98770.22;;;20.88;25.52
80149;BME280;69473;42.426;26.644;2023-11-19T10:48:06;98766.09;;;18.59;28.18
80149;BME280;69473;42.426;26.644;2023-11-19T10:50:41;98752.78;;;21.57;25.39
80149;BME280;69473;42.426;26.644;2023-11-19T10:53:10;98746.06;;;19.23;27.40
80149;BME280;69473;42.426;26.644;2023-11-19T10:55:41;98757.09;;;14.73;32.67
80149;BME280;69473;42.426;26.644;2023-11-19T10:58:10;98763.56;;;12.06;38.22
80149;BME280;69473;42.426;26.644;2023-11-19T11:00:49;98757.09;;;10.66;41.19
80149;BME280;69473;42.426;26.644;2023-11-19T11:03:19;98766.75;;;10.39;41.39
80149;BME280;69473;42.426;26.644;2023-11-19T11:05:49;98766.66;;;12.34;39.32
80149;BME280;69473;42.426;26.644;2023-11-19T11:08:17;98746.72;;;12.93;37.22
80149;BME280;69473;42.426;26.644;2023-11-19T11:10:45;98738.81;;;20.10;28.03
80149;BME280;69473;42.426;26.644;2023-11-19T11:13:14;98741.03;;;22.13;24.60
80149;BME280;69473;42.426;26.644;2023-11-19T11:15:40;98739.63;;;17.71;29.97
80149;BME280;69473;42.426;26.644;2023-11-19T11:18:08;98734.78;;;21.30;26.07
80149;BME280;69473;42.426;26.644;2023-11-19T11:20:35;98733.59;;;22.53;23.66
80149;BME280;69473;42.426;26.644;2023-11-19T11:34:47;98728.47;;;16.33;30.49
80149;BME280;69473;42.426;26.644;2023-11-19T11:37:33;98718.34;;;21.60;24.83
80149;BME280;69473;42.426;26.644;2023-11-19T11:40:02;98725.44;;;25.44;20.56
80149;BME280;69473;42.426;26.644;2023-11-19T11:42:36;98726.63;;;27.14;18.79
80149;BME280;69473;42.426;26.644;2023-11-19T11:50:12;98749.13;;;27.21;17.99
80149;BME280;69473;42.426;26.644;2023-11-19T11:55:36;98725.84;;;25.10;19.03
80149;BME280;69473;42.426;26.644;2023-11-19T11:58:03;98733.88;;;23.99;20.69
80149;BME280;69473;42.426;26.644;2023-11-19T12:00:29;98736.81;;;18.48;27.79
80149;BME280;69473;42.426;26.644;2023-11-19T12:02:56;98734.16;;;15.56;30.99
80149;BME280;69473;42.426;26.644;2023-11-19T12:05:22;98739.56;;;14.00;33.42
80149;BME280;69473;42.426;26.644;2023-11-19T12:08:01;98743.06;;;13.03;34.97
80149;BME280;69473;42.426;26.644;2023-11-19T12:10:31;98759.78;;;12.88;36.83
80149;BME280;69473;42.426;26.644;2023-11-19T12:13:05;98754.78;;;12.76;37.00
80149;BME280;69473;42.426;26.644;2023-11-19T12:15:32;98768.22;;;12.47;37.26
80149;BME280;69473;42.426;26.644;2023-11-19T12:17:58;98751.47;;;12.03;37.87
80149;BME280;69473;42.426;26.644;2023-11-19T12:20:26;98757.69;;;11.91;38.24
80149;BME280;69473;42.426;26.644;2023-11-19T12:22:53;98752.63;;;11.76;39.67
80149;BME280;69473;42.426;26.644;2023-11-19T12:25:19;98748.22;;;11.86;39.17
80149;BME280;69473;42.426;26.644;2023-11-19T12:27:50;98746.69;;;11.66;38.85
80149;BME280;69473;42.426;26.644;2023-11-19T12:30:23;98751.69;;;11.85;39.28
80149;BME280;69473;42.426;26.644;2023-11-19T12:32:50;98756.28;;;11.60;38.64
80149;BME280;69473;42.426;26.644;2023-11-19T12:35:16;98767.66;;;11.45;39.78
80149;BME280;69473;42.426;26.644;2023-11-19T12:37:42;98761.75;;;11.32;39.33
80149;BME280;69473;42.426;26.644;2023-11-19T12:40:25;98760.75;;;11.44;39.39
80149;BME280;69473;42.426;26.644;2023-11-19T12:42:52;98757.50;;;11.23;40.33
80149;BME280;69473;42.426;26.644;2023-11-19T12:45:20;98760.91;;;11.28;40.00
80149;BME280;69473;42.426;26.644;2023-11-19T12:47:47;98773.16;;;11.11;41.26
80149;BME280;69473;42.426;26.644;2023-11-19T12:50:15;98762.72;;;11.20;40.67
80149;BME280;69473;42.426;26.644;2023-11-19T12:52:43;98774.84;;;11.15;41.63
80149;BME280;69473;42.426;26.644;2023-11-19T12:55:28;98774.97;;;11.03;41.15
80149;BME280;69473;42.426;26.644;2023-11-19T12:57:54;98783.63;;;10.99;41.30
80149;BME280;69473;42.426;26.644;2023-11-19T13:00:25;98772.47;;;10.89;41.32
80149;BME280;69473;42.426;26.644;2023-11-19T13:02:53;98767.34;;;10.81;41.17
80149;BME280;69473;42.426;26.644;2023-11-19T13:08:08;98766.53;;;10.73;41.26
80149;BME280;69473;42.426;26.644;2023-11-19T13:13:19;98759.63;;;10.75;40.57
80149;BME280;69473;42.426;26.644;2023-11-19T13:15:44;98751.06;;;10.64;40.93
80149;BME280;69473;42.426;26.644;2023-11-19T13:18:11;98756.28;;;10.58;41.09
80149;BME280;69473;42.426;26.644;2023-11-19T13:20:37;98751.13;;;10.55;41.04
80149;BME280;69473;42.426;26.644;2023-11-19T13:23:04;98756.34;;;10.49;41.24
80149;BME280;69473;42.426;26.644;2023-11-19T13:25:31;98762.38;;;10.46;41.34